Time,TemperatureF,DewpointF,PressureIn,WindDirection,WindDirectionDegrees,WindSpeedMPH,WindSpeedGustMPH,Humidity,HourlyPrecipIn,Conditions,Clouds,dailyrainin,SolarRadiationWatts/m^2,SoftwareType,DateUTC
2013-03-29 00:00:00,31.4,28.3,30.04,West,280,0.0,0.0,88,0.00,,---,0.00,0.00,VWS V14.00,2013-03-29 04:00:00,
2013-03-29 00:05:00,31.4,28.3,30.04,West,280,0.0,0.0,88,0.00,,---,0.00,0.00,VWS V14.00,2013-03-29 04:05:00,
2013-03-29 00:10:00,31.4,28.3,30.04,West,280,0.0,1.0,88,0.00,,---,0.00,0.00,VWS V14.00,2013-03-29 04:10:00,
2013-03-29 00:16:00,31.4,28.3,30.04,West,280,0.0,0.0,88,0.00,,---,0.00,0.00,VWS V14.00,2013-03-29 04:16:00,
2013-03-29 00:21:00,31.5,28.4,30.04,West,280,0.0,0.0,88,0.00,,---,0.00,0.00,VWS V14.00,2013-03-29 04:21:00,
2013-03-29 00:27:00,31.4,28.3,30.04,West,280,0.0,0.0,88,0.00,,---,0.00,0.00,VWS V14.00,2013-03-29 04:27:00,
2013-03-29 00:30:00,32.0,29.4,29.90,NW,311,0.0,2.0,90,0.00,,---,0.00,0.00,VWS V14.00,2013-03-29 04:30:00,
2013-03-29 00:32:00,31.4,28.3,30.04,West,280,0.0,0.0,88,0.00,,---,0.00,0.00,VWS V14.00,2013-03-29 04:32:00,
2013-03-29 00:37:00,31.4,28.3,30.05,West,280,0.0,0.0,88,0.00,,---,0.00,0.00,VWS V14.00,2013-03-29 04:37:00,
2013-03-29 00:42:00,31.4,28.3,30.05,West,280,0.0,0.0,88,0.00,,---,0.00,0.00,VWS V14.00,2013-03-29 04:42:00,
2013-03-29 00:47:00,31.4,28.3,30.05,West,280,0.0,0.0,88,0.00,,---,0.00,0.00,VWS V14.00,2013-03-29 04:47:00,
2013-03-29 00:52:00,31.4,28.3,30.05,West,280,0.0,0.0,88,0.00,,---,0.00,0.00,VWS V14.00,2013-03-29 04:52:00,
2013-03-29 00:57:00,31.5,28.4,30.05,West,280,0.0,0.0,88,0.00,,---,0.00,0.00,VWS V14.00,2013-03-29 04:57:00,
2013-03-29 01:00:00,31.9,29.6,29.90,NW,311,0.0,0.0,91,0.00,,---,0.00,0.00,VWS V14.00,2013-03-29 05:00:00,
2013-03-29 01:02:00,31.5,28.4,30.05,West,280,0.0,0.0,88,0.00,,---,0.00,0.00,VWS V14.00,2013-03-29 05:02:00,
2013-03-29 01:07:00,31.5,28.4,30.05,West,280,0.0,0.0,88,0.00,,---,0.00,0.00,VWS V14.00,2013-03-29 05:07:00,
2013-03-29 01:12:00,31.6,28.7,30.05,West,280,0.0,1.0,89,0.00,,---,0.00,0.00,VWS V14.00,2013-03-29 05:12:00,
2013-03-29 01:17:00,31.6,28.7,30.05,West,280,0.0,0.0,89,0.00,,---,0.00,0.00,VWS V14.00,2013-03-29 05:17:00,
2013-03-29 01:22:00,31.7,28.8,30.05,West,280,0.0,0.0,89,0.00,,---,0.00,0.00,VWS V14.00,2013-03-29 05:22:00,
2013-03-29 01:27:00,31.7,28.8,30.05,West,280,0.0,0.0,89,0.00,,---,0.00,0.00,VWS V14.00,2013-03-29 05:27:00,
2013-03-29 01:30:00,31.9,29.6,29.90,NW,311,0.0,1.0,91,0.00,,---,0.00,0.00,VWS V14.00,2013-03-29 05:30:00,
2013-03-29 01:32:00,31.8,28.9,30.05,West,280,0.0,0.0,89,0.00,,---,0.00,0.00,VWS V14.00,2013-03-29 05:32:00,
2013-03-29 01:38:00,31.8,28.9,30.05,West,280,0.0,0.0,89,0.00,,---,0.00,0.00,VWS V14.00,2013-03-29 05:38:00,
2013-03-29 01:43:00,31.8,28.9,30.05,West,280,0.0,0.0,89,0.00,,---,0.00,0.00,VWS V14.00,2013-03-29 05:43:00,
2013-03-29 01:48:00,31.8,28.9,30.05,West,280,0.0,0.0,89,0.00,,---,0.00,0.00,VWS V14.00,2013-03-29 05:48:00,
2013-03-29 01:53:00,31.9,29.0,30.04,West,280,0.0,0.0,89,0.00,,---,0.00,0.00,VWS V14.00,2013-03-29 05:53:00,
2013-03-29 01:58:00,31.9,29.0,30.05,West,280,0.0,0.0,89,0.00,,---,0.00,0.00,VWS V14.00,2013-03-29 05:58:00,
2013-03-29 02:00:00,31.9,29.6,29.90,NW,311,0.0,0.0,91,0.00,,---,0.00,0.00,VWS V14.00,2013-03-29 06:00:00,
2013-03-29 02:03:00,31.8,28.9,30.04,West,280,0.0,0.0,89,0.00,,---,0.00,0.00,VWS V14.00,2013-03-29 06:03:00,
2013-03-29 02:08:00,31.8,28.9,30.04,West,280,0.0,0.0,89,0.00,,---,0.00,0.00,VWS V14.00,2013-03-29 06:08:00,
2013-03-29 02:13:00,31.8,28.9,30.04,West,280,0.0,0.0,89,0.00,,---,0.00,0.00,VWS V14.00,2013-03-29 06:13:00,
2013-03-29 02:18:00,31.9,29.0,30.04,West,280,0.0,0.0,89,0.00,,---,0.00,0.00,VWS V14.00,2013-03-29 06:18:00,
2013-03-29 02:23:00,31.9,29.0,30.04,West,280,0.0,0.0,89,0.00,,---,0.00,0.00,VWS V14.00,2013-03-29 06:23:00,
2013-03-29 02:28:00,31.9,29.0,30.04,West,280,0.0,0.0,89,0.00,,---,0.00,0.00,VWS V14.00,2013-03-29 06:28:00,
2013-03-29 02:30:00,31.7,29.4,29.91,NW,311,0.0,0.0,91,0.00,,---,0.00,0.00,VWS V14.00,2013-03-29 06:30:00,
2013-03-29 02:33:00,32.0,29.1,30.04,West,280,0.0,1.0,89,0.00,,---,0.00,0.00,VWS V14.00,2013-03-29 06:33:00,
2013-03-29 02:38:00,32.0,29.1,30.04,West,280,0.0,1.0,89,0.00,,---,0.00,0.00,VWS V14.00,2013-03-29 06:38:00,
2013-03-29 02:43:00,32.1,29.2,30.04,West,280,0.0,1.0,89,0.00,,---,0.00,0.00,VWS V14.00,2013-03-29 06:43:00,
2013-03-29 02:48:00,32.1,29.2,30.04,West,280,0.0,0.0,89,0.00,,---,0.00,0.00,VWS V14.00,2013-03-29 06:48:00,
2013-03-29 02:53:00,32.2,29.3,30.04,West,280,0.0,0.0,89,0.00,,---,0.00,0.00,VWS V14.00,2013-03-29 06:53:00,
2013-03-29 02:58:00,32.3,29.4,30.04,West,280,0.0,0.0,89,0.00,,---,0.00,0.00,VWS V14.00,2013-03-29 06:58:00,
2013-03-29 03:00:00,31.6,29.3,29.91,NW,311,0.0,1.0,91,0.00,,---,0.00,0.00,VWS V14.00,2013-03-29 07:00:00,
2013-03-29 03:03:00,32.3,29.4,30.04,West,280,0.0,1.0,89,0.00,,---,0.00,0.00,VWS V14.00,2013-03-29 07:03:00,
2013-03-29 03:08:00,32.3,29.4,30.03,West,280,0.0,1.0,89,0.00,,---,0.00,0.00,VWS V14.00,2013-03-29 07:08:00,
2013-03-29 03:13:00,32.3,29.4,30.03,West,280,0.0,1.0,89,0.00,,---,0.00,0.00,VWS V14.00,2013-03-29 07:13:00,
2013-03-29 03:18:00,32.3,29.4,30.03,West,280,0.0,0.0,89,0.00,,---,0.00,0.00,VWS V14.00,2013-03-29 07:18:00,
2013-03-29 03:23:00,32.2,29.3,30.03,West,280,0.0,0.0,89,0.00,,---,0.00,0.00,VWS V14.00,2013-03-29 07:23:00,
2013-03-29 03:28:00,32.2,29.3,30.03,West,280,0.0,0.0,89,0.00,,---,0.00,0.00,VWS V14.00,2013-03-29 07:28:00,
2013-03-29 03:30:00,31.4,29.1,29.91,NW,311,0.0,2.0,91,0.00,,---,0.00,0.00,VWS V14.00,2013-03-29 07:30:00,
2013-03-29 03:33:00,32.1,29.2,30.04,West,280,0.0,1.0,89,0.00,,---,0.00,0.00,VWS V14.00,2013-03-29 07:33:00,
2013-03-29 03:38:00,32.0,29.1,30.04,West,280,0.0,1.0,89,0.00,,---,0.00,0.00,VWS V14.00,2013-03-29 07:38:00,
2013-03-29 03:43:00,31.8,28.9,30.04,West,280,0.0,1.0,89,0.00,,---,0.00,0.00,VWS V14.00,2013-03-29 07:43:00,
2013-03-29 03:48:00,31.6,28.7,30.04,West,280,0.0,0.0,89,0.00,,---,0.00,0.00,VWS V14.00,2013-03-29 07:48:00,
2013-03-29 03:53:00,31.5,28.6,30.04,West,280,0.0,1.0,89,0.00,,---,0.00,0.00,VWS V14.00,2013-03-29 07:53:00,
2013-03-29 03:58:00,31.4,28.5,30.04,West,280,0.0,1.0,89,0.00,,---,0.00,0.00,VWS V14.00,2013-03-29 07:58:00,
2013-03-29 04:00:00,31.1,28.8,29.91,NW,311,0.0,0.0,91,0.00,,---,0.00,0.00,VWS V14.00,2013-03-29 08:00:00,
2013-03-29 04:03:00,31.0,28.1,30.04,West,280,0.0,1.0,89,0.00,,---,0.00,0.00,VWS V14.00,2013-03-29 08:03:00,
2013-03-29 04:08:00,30.9,28.0,30.04,West,280,0.0,1.0,89,0.00,,---,0.00,0.00,VWS V14.00,2013-03-29 08:08:00,
2013-03-29 04:13:00,31.0,28.1,30.04,West,280,0.0,1.0,89,0.00,,---,0.00,0.00,VWS V14.00,2013-03-29 08:13:00,
2013-03-29 04:18:00,30.7,27.9,30.04,West,280,0.0,0.0,89,0.00,,---,0.00,0.00,VWS V14.00,2013-03-29 08:18:00,
2013-03-29 04:23:00,30.5,27.6,30.04,West,280,0.0,0.0,89,0.00,,---,0.00,0.00,VWS V14.00,2013-03-29 08:23:00,
2013-03-29 04:28:00,30.4,27.5,30.04,West,280,0.0,0.0,89,0.00,,---,0.00,0.00,VWS V14.00,2013-03-29 08:28:00,
2013-03-29 04:30:00,31.6,29.5,29.92,NW,311,0.0,2.0,92,0.00,,---,0.00,0.00,VWS V14.00,2013-03-29 08:30:00,
2013-03-29 04:33:00,30.4,27.5,30.04,West,280,0.0,0.0,89,0.00,,---,0.00,0.00,VWS V14.00,2013-03-29 08:33:00,
2013-03-29 04:38:00,30.4,27.5,30.04,West,280,0.0,0.0,89,0.00,,---,0.00,0.00,VWS V14.00,2013-03-29 08:38:00,
2013-03-29 04:43:00,30.4,27.5,30.04,West,280,0.0,0.0,89,0.00,,---,0.00,0.00,VWS V14.00,2013-03-29 08:43:00,
2013-03-29 04:48:00,30.3,27.7,30.04,West,280,0.0,0.0,90,0.00,,---,0.00,0.00,VWS V14.00,2013-03-29 08:48:00,
2013-03-29 04:54:00,30.4,27.8,30.04,West,280,0.0,0.0,90,0.00,,---,0.00,0.00,VWS V14.00,2013-03-29 08:54:00,
2013-03-29 04:59:00,30.3,27.7,30.04,West,280,0.0,0.0,90,0.00,,---,0.00,0.00,VWS V14.00,2013-03-29 08:59:00,
2013-03-29 05:00:00,32.1,30.0,29.93,NW,311,2.0,3.0,92,0.00,,---,0.00,7.00,VWS V14.00,2013-03-29 09:00:00,
2013-03-29 05:04:00,30.2,27.6,30.04,West,280,0.0,0.0,90,0.00,,---,0.00,0.00,VWS V14.00,2013-03-29 09:04:00,
2013-03-29 05:09:00,29.9,27.3,30.04,West,280,0.0,0.0,90,0.00,,---,0.00,0.00,VWS V14.00,2013-03-29 09:09:00,
2013-03-29 05:14:00,29.9,27.3,30.04,West,280,0.0,0.0,90,0.00,,---,0.00,0.00,VWS V14.00,2013-03-29 09:14:00,
2013-03-29 05:19:00,29.9,27.3,30.04,West,280,0.0,0.0,90,0.00,,---,0.00,0.00,VWS V14.00,2013-03-29 09:19:00,
2013-03-29 05:24:00,30.0,27.4,30.04,West,280,0.0,0.0,90,0.00,,---,0.00,0.00,VWS V14.00,2013-03-29 09:24:00,
2013-03-29 05:29:00,30.0,27.4,30.04,West,280,0.0,0.0,90,0.00,,---,0.00,0.00,VWS V14.00,2013-03-29 09:29:00,
2013-03-29 05:30:00,32.4,30.3,29.94,NW,312,1.0,4.0,92,0.00,,---,0.00,21.00,VWS V14.00,2013-03-29 09:30:00,
2013-03-29 05:34:00,30.1,27.5,30.04,West,280,0.0,0.0,90,0.00,,---,0.00,0.00,VWS V14.00,2013-03-29 09:34:00,
2013-03-29 05:39:00,30.2,27.6,30.04,West,280,0.0,0.0,90,0.00,,---,0.00,0.00,VWS V14.00,2013-03-29 09:39:00,
2013-03-29 05:44:00,30.3,27.7,30.04,West,280,0.0,0.0,90,0.00,,---,0.00,0.00,VWS V14.00,2013-03-29 09:44:00,
2013-03-29 05:49:00,30.4,27.8,30.04,West,280,0.0,0.0,90,0.00,,---,0.00,0.00,VWS V14.00,2013-03-29 09:49:00,
2013-03-29 05:54:00,30.5,27.9,30.04,West,280,0.0,0.0,90,0.00,,---,0.00,0.00,VWS V14.00,2013-03-29 09:54:00,
2013-03-29 05:59:00,30.6,28.0,30.04,West,280,0.0,0.0,90,0.00,,---,0.00,0.00,VWS V14.00,2013-03-29 09:59:00,
2013-03-29 06:00:00,32.8,30.7,29.95,NW,311,0.0,7.0,92,0.00,,---,0.00,40.00,VWS V14.00,2013-03-29 10:00:00,
2013-03-29 06:04:00,30.6,28.0,30.04,West,280,0.0,0.0,90,0.00,,---,0.00,0.00,VWS V14.00,2013-03-29 10:04:00,
2013-03-29 06:09:00,30.7,28.1,30.04,West,280,0.0,0.0,90,0.00,,---,0.00,0.00,VWS V14.00,2013-03-29 10:09:00,
2013-03-29 06:14:00,30.7,28.1,30.04,West,280,0.0,0.0,90,0.00,,---,0.00,0.00,VWS V14.00,2013-03-29 10:14:00,
2013-03-29 06:19:00,30.9,28.6,30.04,West,280,0.0,0.0,91,0.00,,---,0.00,0.00,VWS V14.00,2013-03-29 10:19:00,
2013-03-29 06:24:00,31.0,28.7,30.04,West,280,0.0,0.0,91,0.00,,---,0.00,0.00,VWS V14.00,2013-03-29 10:24:00,
2013-03-29 06:29:00,31.2,28.9,30.04,West,280,0.0,0.0,91,0.00,,---,0.00,0.00,VWS V14.00,2013-03-29 10:29:00,
2013-03-29 06:30:00,33.2,31.1,29.95,WNW,292,3.0,7.0,92,0.00,,---,0.00,88.00,VWS V14.00,2013-03-29 10:30:00,
2013-03-29 06:34:00,31.2,28.6,30.04,West,280,0.0,0.0,90,0.00,,---,0.00,0.00,VWS V14.00,2013-03-29 10:34:00,
2013-03-29 06:39:00,31.3,29.0,30.04,West,280,0.0,0.0,91,0.00,,---,0.00,0.00,VWS V14.00,2013-03-29 10:39:00,
2013-03-29 06:44:00,31.4,29.1,30.04,West,280,0.0,0.0,91,0.00,,---,0.00,5.00,VWS V14.00,2013-03-29 10:44:00,
2013-03-29 06:49:00,31.4,29.1,30.05,West,280,0.0,0.0,91,0.00,,---,0.00,7.00,VWS V14.00,2013-03-29 10:49:00,
2013-03-29 06:54:00,31.5,29.2,30.05,West,280,0.0,0.0,91,0.00,,---,0.00,11.00,VWS V14.00,2013-03-29 10:54:00,
2013-03-29 06:59:00,31.5,29.2,30.05,West,280,0.0,0.0,91,0.00,,---,0.00,16.00,VWS V14.00,2013-03-29 10:59:00,
2013-03-29 07:00:00,33.5,31.4,29.95,NW,307,5.0,9.0,92,0.00,,---,0.00,139.00,VWS V14.00,2013-03-29 11:00:00,
2013-03-29 07:04:00,31.6,29.3,30.05,West,280,0.0,0.0,91,0.00,,---,0.00,19.00,VWS V14.00,2013-03-29 11:04:00,
2013-03-29 07:09:00,31.7,29.4,30.05,West,280,0.0,0.0,91,0.00,,---,0.00,16.00,VWS V14.00,2013-03-29 11:09:00,
2013-03-29 07:14:00,31.7,29.4,30.05,West,280,0.0,0.0,91,0.00,,---,0.00,14.00,VWS V14.00,2013-03-29 11:14:00,
2013-03-29 07:19:00,31.7,29.4,30.05,West,280,0.0,0.0,91,0.00,,---,0.00,19.00,VWS V14.00,2013-03-29 11:19:00,
2013-03-29 07:24:00,31.8,29.5,30.05,West,280,0.0,0.0,91,0.00,,---,0.00,25.00,VWS V14.00,2013-03-29 11:24:00,
2013-03-29 07:29:00,31.9,29.6,30.05,West,280,0.0,0.0,91,0.00,,---,0.00,25.00,VWS V14.00,2013-03-29 11:29:00,
2013-03-29 07:30:00,34.2,32.1,29.96,NW,321,4.0,10.0,92,0.00,,---,0.00,183.00,VWS V14.00,2013-03-29 11:30:00,
2013-03-29 07:34:00,32.0,29.7,30.05,West,280,0.0,1.0,91,0.00,,---,0.00,30.00,VWS V14.00,2013-03-29 11:34:00,
2013-03-29 07:39:00,32.1,29.8,30.05,West,280,0.0,1.0,91,0.00,,---,0.00,42.00,VWS V14.00,2013-03-29 11:39:00,
2013-03-29 07:44:00,32.3,30.0,30.05,West,280,0.0,1.0,91,0.00,,---,0.00,49.00,VWS V14.00,2013-03-29 11:44:00,
2013-03-29 07:49:00,32.4,30.1,30.05,West,280,0.0,1.0,91,0.00,,---,0.00,58.00,VWS V14.00,2013-03-29 11:49:00,
2013-03-29 07:54:00,32.5,30.2,30.05,West,280,0.0,1.0,91,0.00,,---,0.00,53.00,VWS V14.00,2013-03-29 11:54:00,
2013-03-29 07:59:00,32.7,30.4,30.06,West,280,0.0,1.0,91,0.00,,---,0.00,84.00,VWS V14.00,2013-03-29 11:59:00,
2013-03-29 08:00:00,34.6,32.0,29.97,WNW,290,7.0,9.0,90,0.00,,---,0.00,204.00,VWS V14.00,2013-03-29 12:00:00,
2013-03-29 08:04:00,32.9,30.6,30.05,West,280,0.0,1.0,91,0.00,,---,0.00,111.00,VWS V14.00,2013-03-29 12:04:00,
2013-03-29 08:09:00,33.2,30.9,30.06,West,280,0.0,1.0,91,0.00,,---,0.00,90.00,VWS V14.00,2013-03-29 12:09:00,
2013-03-29 08:14:00,33.3,31.0,30.06,West,280,0.0,1.0,91,0.00,,---,0.00,62.00,VWS V14.00,2013-03-29 12:14:00,
2013-03-29 08:19:00,33.7,31.4,30.06,West,280,1.0,2.0,91,0.00,,---,0.00,62.00,VWS V14.00,2013-03-29 12:19:00,
2013-03-29 08:24:00,34.1,31.8,30.06,West,280,0.0,2.0,91,0.00,,---,0.00,67.00,VWS V14.00,2013-03-29 12:24:00,
2013-03-29 08:29:00,34.4,32.0,30.06,West,280,0.0,2.0,91,0.00,,---,0.00,74.00,VWS V14.00,2013-03-29 12:29:00,
2013-03-29 08:30:00,35.3,32.4,29.97,WNW,293,3.0,8.0,89,0.00,,---,0.00,174.00,VWS V14.00,2013-03-29 12:30:00,
2013-03-29 08:34:00,34.6,32.0,30.06,West,280,0.0,2.0,90,0.00,,---,0.00,95.00,VWS V14.00,2013-03-29 12:34:00,
2013-03-29 08:39:00,34.8,32.2,30.06,West,280,0.0,2.0,90,0.00,,---,0.00,70.00,VWS V14.00,2013-03-29 12:39:00,
2013-03-29 08:44:00,34.9,32.3,30.06,West,280,0.0,2.0,90,0.00,,---,0.00,86.00,VWS V14.00,2013-03-29 12:44:00,
2013-03-29 08:49:00,35.1,32.2,30.06,West,280,0.0,0.0,89,0.00,,---,0.00,60.00,VWS V14.00,2013-03-29 12:49:00,
2013-03-29 08:55:00,35.2,32.3,30.06,West,280,0.0,0.0,89,0.00,,---,0.00,79.00,VWS V14.00,2013-03-29 12:55:00,
2013-03-29 09:00:00,35.4,32.5,30.06,West,280,0.0,1.0,89,0.00,,---,0.00,93.00,VWS V14.00,2013-03-29 13:00:00,
2013-03-29 09:05:00,35.5,32.3,30.06,West,280,0.0,1.0,88,0.00,,---,0.00,107.00,VWS V14.00,2013-03-29 13:05:00,
2013-03-29 09:10:00,35.7,32.5,30.06,West,280,0.0,1.0,88,0.00,,---,0.00,74.00,VWS V14.00,2013-03-29 13:10:00,
2013-03-29 09:15:00,35.9,32.7,30.06,WSW,253,0.0,3.0,88,0.00,,---,0.00,104.00,VWS V14.00,2013-03-29 13:15:00,
2013-03-29 09:20:00,36.1,32.6,30.06,WSW,250,0.0,0.0,87,0.00,,---,0.00,111.00,VWS V14.00,2013-03-29 13:20:00,
2013-03-29 09:25:00,36.2,32.7,30.06,WSW,250,0.0,1.0,87,0.00,,---,0.00,105.00,VWS V14.00,2013-03-29 13:25:00,
2013-03-29 09:30:00,36.4,32.6,30.06,WSW,250,0.0,1.0,86,0.00,,---,0.00,88.00,VWS V14.00,2013-03-29 13:30:00,
2013-03-29 09:35:00,36.5,32.7,30.06,WSW,250,0.0,3.0,86,0.00,,---,0.00,111.00,VWS V14.00,2013-03-29 13:35:00,
2013-03-29 09:40:00,36.6,32.8,30.06,WSW,250,0.0,3.0,86,0.00,,---,0.00,146.00,VWS V14.00,2013-03-29 13:40:00,
2013-03-29 09:45:00,36.8,32.7,30.06,WSW,250,0.0,3.0,85,0.00,,---,0.00,155.00,VWS V14.00,2013-03-29 13:45:00,
2013-03-29 09:50:00,37.0,32.9,30.06,WSW,250,0.0,1.0,85,0.00,,---,0.00,165.00,VWS V14.00,2013-03-29 13:50:00,
2013-03-29 09:55:00,37.1,32.7,30.06,WSW,250,1.0,2.0,84,0.00,,---,0.00,162.00,VWS V14.00,2013-03-29 13:55:00,
2013-03-29 10:00:00,37.3,32.9,30.06,WSW,250,1.0,2.0,84,0.00,,---,0.00,171.00,VWS V14.00,2013-03-29 14:00:00,
2013-03-29 10:05:00,37.4,32.7,30.06,WNW,291,0.0,5.0,83,0.00,,---,0.00,148.00,VWS V14.00,2013-03-29 14:05:00,
2013-03-29 10:10:00,37.5,32.8,30.06,WNW,291,0.0,5.0,83,0.00,,---,0.00,132.00,VWS V14.00,2013-03-29 14:10:00,
2013-03-29 10:15:00,37.6,32.9,30.06,WNW,291,1.0,5.0,83,0.00,,---,0.00,137.00,VWS V14.00,2013-03-29 14:15:00,
2013-03-29 10:20:00,37.7,33.0,30.06,WNW,291,1.0,2.0,83,0.00,,---,0.00,163.00,VWS V14.00,2013-03-29 14:20:00,
2013-03-29 10:25:00,37.7,33.0,30.06,West,261,4.0,4.0,83,0.00,,---,0.00,153.00,VWS V14.00,2013-03-29 14:25:00,
2013-03-29 10:30:00,37.7,33.0,30.06,WSW,249,3.0,4.0,83,0.00,,---,0.00,169.00,VWS V14.00,2013-03-29 14:30:00,
2013-03-29 10:35:00,37.7,33.0,30.06,WSW,249,0.0,4.0,83,0.00,,---,0.00,144.00,VWS V14.00,2013-03-29 14:35:00,
2013-03-29 10:40:00,37.8,33.1,30.06,WSW,249,1.0,4.0,83,0.00,,---,0.00,156.00,VWS V14.00,2013-03-29 14:40:00,
2013-03-29 10:45:00,37.8,33.1,30.06,WSW,249,0.0,4.0,83,0.00,,---,0.00,190.00,VWS V14.00,2013-03-29 14:45:00,
2013-03-29 10:50:00,37.9,33.2,30.06,WSW,249,2.0,2.0,83,0.00,,---,0.00,174.00,VWS V14.00,2013-03-29 14:50:00,
2013-03-29 10:55:00,38.0,33.3,30.06,WSW,249,0.0,3.0,83,0.00,,---,0.00,199.00,VWS V14.00,2013-03-29 14:55:00,
2013-03-29 11:00:00,38.1,33.4,30.06,SSW,213,2.0,4.0,83,0.00,,---,0.00,229.00,VWS V14.00,2013-03-29 15:00:00,
2013-03-29 11:05:00,38.2,33.5,30.06,SW,215,0.0,4.0,83,0.00,,---,0.00,193.00,VWS V14.00,2013-03-29 15:05:00,
2013-03-29 11:10:00,38.3,33.3,30.06,NW,310,0.0,4.0,82,0.00,,---,0.00,120.00,VWS V14.00,2013-03-29 15:10:00,
2013-03-29 11:15:00,38.2,33.5,30.06,NW,313,0.0,6.0,83,0.00,,---,0.00,234.00,VWS V14.00,2013-03-29 15:15:00,
2013-03-29 11:20:00,38.2,33.5,30.06,NW,313,0.0,3.0,83,0.00,,---,0.00,450.00,VWS V14.00,2013-03-29 15:20:00,
2013-03-29 11:25:00,38.4,34.0,30.06,WSW,240,2.0,3.0,84,0.00,,---,0.00,373.00,VWS V14.00,2013-03-29 15:25:00,
2013-03-29 11:30:00,38.6,34.2,30.06,West,259,0.0,3.0,84,0.00,,---,0.00,429.00,VWS V14.00,2013-03-29 15:30:00,
2013-03-29 11:35:00,38.9,34.8,30.06,West,259,0.0,3.0,85,0.00,,---,0.00,364.00,VWS V14.00,2013-03-29 15:35:00,
2013-03-29 11:40:00,39.3,34.9,30.06,West,274,0.0,3.0,84,0.00,,---,0.00,311.00,VWS V14.00,2013-03-29 15:40:00,
2013-03-29 11:45:00,39.5,35.1,30.06,WSW,247,2.0,2.0,84,0.00,,---,0.00,243.00,VWS V14.00,2013-03-29 15:45:00,
2013-03-29 11:50:00,39.5,34.5,30.06,North,5,4.0,4.0,82,0.00,,---,0.00,246.00,VWS V14.00,2013-03-29 15:50:00,
2013-03-29 11:55:00,39.6,34.6,30.06,WNW,291,2.0,4.0,82,0.00,,---,0.00,394.00,VWS V14.00,2013-03-29 15:55:00,
2013-03-29 12:00:00,39.7,34.4,30.05,NNE,14,3.0,4.0,81,0.00,,---,0.00,608.00,VWS V14.00,2013-03-29 16:00:00,
2013-03-29 12:05:00,39.8,34.1,30.05,East,84,1.0,4.0,80,0.00,,---,0.00,413.00,VWS V14.00,2013-03-29 16:05:00,
2013-03-29 12:10:00,40.2,34.2,30.05,NE,42,1.0,4.0,79,0.00,,---,0.00,258.00,VWS V14.00,2013-03-29 16:10:00,
2013-03-29 12:15:00,40.4,34.1,30.04,WNW,286,1.0,1.0,78,0.00,,---,0.00,378.00,VWS V14.00,2013-03-29 16:15:00,
2013-03-29 12:20:00,41.0,33.7,30.04,ENE,78,2.0,5.0,75,0.00,,---,0.00,694.00,VWS V14.00,2013-03-29 16:20:00,
2013-03-29 12:25:00,41.7,34.0,30.04,NNE,15,4.0,6.0,74,0.00,,---,0.00,394.00,VWS V14.00,2013-03-29 16:25:00,
2013-03-29 12:30:00,42.0,33.6,30.04,North,5,7.0,7.0,72,0.00,,---,0.00,338.00,VWS V14.00,2013-03-29 16:30:00,
2013-03-29 12:35:00,42.2,32.8,30.04,North,5,7.0,7.0,69,0.00,,---,0.00,308.00,VWS V14.00,2013-03-29 16:35:00,
2013-03-29 12:40:00,42.0,32.2,30.04,WNW,300,7.0,10.0,68,0.00,,---,0.00,158.00,VWS V14.00,2013-03-29 16:40:00,
2013-03-29 12:46:00,41.9,32.5,30.04,NW,309,2.0,2.0,69,0.00,,---,0.00,125.00,VWS V14.00,2013-03-29 16:46:00,
2013-03-29 12:51:00,41.7,32.3,30.04,NNW,333,1.0,5.0,69,0.00,,---,0.00,123.00,VWS V14.00,2013-03-29 16:51:00,
2013-03-29 12:56:00,41.2,32.2,30.04,NW,314,7.0,7.0,70,0.00,,---,0.00,167.00,VWS V14.00,2013-03-29 16:56:00,
2013-03-29 13:00:00,43.0,31.3,29.96,North,5,6.0,15.0,63,0.00,,---,0.00,726.00,VWS V14.00,2013-03-29 17:00:00,
2013-03-29 13:01:00,40.7,32.4,30.04,NNW,344,7.0,11.0,72,0.00,,---,0.00,179.00,VWS V14.00,2013-03-29 17:01:00,
2013-03-29 13:06:00,40.3,33.0,30.04,North,360,3.0,11.0,75,0.00,,---,0.00,346.00,VWS V14.00,2013-03-29 17:06:00,
2013-03-29 13:11:00,40.1,33.5,30.04,North,5,1.0,11.0,77,0.00,,---,0.00,348.00,VWS V14.00,2013-03-29 17:11:00,
2013-03-29 13:16:00,40.0,33.4,30.03,NNE,26,4.0,4.0,77,0.00,,---,0.00,373.00,VWS V14.00,2013-03-29 17:16:00,
2013-03-29 13:21:00,40.1,33.5,30.03,North,355,0.0,5.0,77,0.00,,---,0.00,274.00,VWS V14.00,2013-03-29 17:21:00,
2013-03-29 13:27:00,40.3,33.7,30.03,WNW,302,0.0,5.0,77,0.00,,---,0.00,204.00,VWS V14.00,2013-03-29 17:27:00,
2013-03-29 13:30:00,44.9,31.5,29.96,NNW,332,8.0,14.0,59,0.00,,---,0.00,114.00,VWS V14.00,2013-03-29 17:30:00,
2013-03-29 13:32:00,40.6,33.6,30.03,West,268,0.0,5.0,76,0.00,,---,0.00,151.00,VWS V14.00,2013-03-29 17:32:00,
2013-03-29 13:37:00,40.7,33.4,30.03,WNW,287,0.0,5.0,75,0.00,,---,0.00,137.00,VWS V14.00,2013-03-29 17:37:00,
2013-03-29 13:42:00,40.9,33.3,30.02,WNW,287,0.0,5.0,74,0.00,,---,0.00,137.00,VWS V14.00,2013-03-29 17:42:00,
2013-03-29 13:47:00,41.0,33.7,30.03,WNW,287,0.0,2.0,75,0.00,,---,0.00,118.00,VWS V14.00,2013-03-29 17:47:00,
2013-03-29 13:52:00,40.9,33.3,30.03,WNW,295,3.0,5.0,74,0.00,,---,0.00,109.00,VWS V14.00,2013-03-29 17:52:00,
2013-03-29 13:57:00,40.6,32.6,30.03,West,272,0.0,7.0,73,0.00,,---,0.00,134.00,VWS V14.00,2013-03-29 17:57:00,
2013-03-29 14:00:00,43.1,31.4,29.96,NNE,14,6.0,13.0,63,0.00,,---,0.00,568.00,VWS V14.00,2013-03-29 18:00:00,
2013-03-29 14:02:00,40.4,33.1,30.02,West,272,0.0,7.0,75,0.00,,---,0.00,163.00,VWS V14.00,2013-03-29 18:02:00,
2013-03-29 14:07:00,40.3,33.3,30.02,West,272,0.0,7.0,76,0.00,,---,0.00,148.00,VWS V14.00,2013-03-29 18:07:00,
2013-03-29 14:12:00,40.2,33.6,30.02,West,260,0.0,7.0,77,0.00,,---,0.00,165.00,VWS V14.00,2013-03-29 18:12:00,
2013-03-29 14:17:00,40.1,34.1,30.02,SW,215,1.0,2.0,79,0.00,,---,0.00,202.00,VWS V14.00,2013-03-29 18:17:00,
2013-03-29 14:22:00,39.8,34.1,30.02,SSW,205,0.0,2.0,80,0.00,,---,0.00,211.00,VWS V14.00,2013-03-29 18:22:00,
2013-03-29 14:27:00,39.6,34.3,30.02,West,260,0.0,5.0,81,0.00,,---,0.00,227.00,VWS V14.00,2013-03-29 18:27:00,
2013-03-29 14:30:00,43.6,31.0,29.97,North,360,3.0,15.0,61,0.00,,---,0.00,77.00,VWS V14.00,2013-03-29 18:30:00,
2013-03-29 14:32:00,39.6,34.6,30.02,SW,225,2.0,5.0,82,0.00,,---,0.00,220.00,VWS V14.00,2013-03-29 18:32:00,
2013-03-29 14:37:00,39.5,34.5,30.02,West,264,0.0,5.0,82,0.00,,---,0.00,188.00,VWS V14.00,2013-03-29 18:37:00,
2013-03-29 14:42:00,39.5,34.5,30.02,West,264,0.0,5.0,82,0.00,,---,0.00,137.00,VWS V14.00,2013-03-29 18:42:00,
2013-03-29 14:47:00,39.4,34.4,30.02,West,264,0.0,0.0,82,0.00,,---,0.00,128.00,VWS V14.00,2013-03-29 18:47:00,
2013-03-29 14:52:00,39.5,34.8,30.02,West,264,0.0,3.0,83,0.00,,---,0.00,165.00,VWS V14.00,2013-03-29 18:52:00,
2013-03-29 14:57:00,39.5,34.8,30.01,West,264,0.0,3.0,83,0.00,,---,0.00,223.00,VWS V14.00,2013-03-29 18:57:00,
2013-03-29 15:00:00,42.5,31.6,29.97,NNE,17,3.0,7.0,65,0.00,,---,0.00,54.00,VWS V14.00,2013-03-29 19:00:00,
2013-03-29 15:02:00,39.6,34.6,30.01,West,264,0.0,3.0,82,0.00,,---,0.00,185.00,VWS V14.00,2013-03-29 19:02:00,
2013-03-29 15:07:00,39.5,34.2,30.01,West,264,0.0,3.0,81,0.00,,---,0.00,211.00,VWS V14.00,2013-03-29 19:07:00,
2013-03-29 15:12:00,39.5,34.2,30.01,West,264,2.0,3.0,81,0.00,,---,0.00,225.00,VWS V14.00,2013-03-29 19:12:00,
2013-03-29 15:17:00,39.7,34.0,30.01,West,264,0.0,0.0,80,0.00,,---,0.00,250.00,VWS V14.00,2013-03-29 19:17:00,
2013-03-29 15:22:00,39.9,34.2,30.01,West,264,0.0,1.0,80,0.00,,---,0.00,271.00,VWS V14.00,2013-03-29 19:22:00,
2013-03-29 15:27:00,40.0,34.3,30.01,West,264,2.0,2.0,80,0.00,,---,0.00,272.00,VWS V14.00,2013-03-29 19:27:00,
2013-03-29 15:30:00,41.9,31.4,29.98,NW,306,1.0,8.0,66,0.00,,---,0.00,33.00,VWS V14.00,2013-03-29 19:30:00,
2013-03-29 15:33:00,40.0,34.0,30.01,ESE,105,0.0,3.0,79,0.00,,---,0.00,264.00,VWS V14.00,2013-03-29 19:33:00,
2013-03-29 15:38:00,40.0,33.7,30.00,ESE,105,0.0,3.0,78,0.00,,---,0.00,251.00,VWS V14.00,2013-03-29 19:38:00,
2013-03-29 15:43:00,40.2,33.9,30.00,NE,40,0.0,3.0,78,0.00,,---,0.00,202.00,VWS V14.00,2013-03-29 19:43:00,
2013-03-29 15:48:00,40.2,33.9,30.00,NE,40,0.0,0.0,78,0.00,,---,0.00,118.00,VWS V14.00,2013-03-29 19:48:00,
2013-03-29 15:53:00,40.3,33.7,30.00,NW,304,2.0,3.0,77,0.00,,---,0.00,49.00,VWS V14.00,2013-03-29 19:53:00,
2013-03-29 15:58:00,40.1,33.5,30.01,WNW,296,3.0,10.0,77,0.00,,---,0.00,35.00,VWS V14.00,2013-03-29 19:58:00,
2013-03-29 16:00:00,41.5,31.4,29.98,West,277,3.0,7.0,67,0.00,,---,0.00,30.00,VWS V14.00,2013-03-29 20:00:00,
2013-03-29 16:03:00,39.2,33.2,30.02,North,355,1.0,10.0,79,0.00,,---,0.00,39.00,VWS V14.00,2013-03-29 20:03:00,
2013-03-29 16:08:00,38.2,32.9,30.02,WNW,301,0.0,10.0,81,0.00,,---,0.00,32.00,VWS V14.00,2013-03-29 20:08:00,
2013-03-29 16:13:00,37.4,32.7,30.02,WNW,301,3.0,10.0,83,0.01,,---,0.01,35.00,VWS V14.00,2013-03-29 20:13:00,
2013-03-29 16:18:00,36.7,32.3,30.02,WNW,301,0.0,1.0,84,0.03,,---,0.03,65.00,VWS V14.00,2013-03-29 20:18:00,
2013-03-29 16:23:00,36.3,32.2,30.02,WNW,301,0.0,2.0,85,0.04,,---,0.04,98.00,VWS V14.00,2013-03-29 20:23:00,
2013-03-29 16:28:00,35.8,31.7,30.02,WNW,301,0.0,2.0,85,0.05,,---,0.05,98.00,VWS V14.00,2013-03-29 20:28:00,
2013-03-29 16:30:00,41.5,31.7,29.99,North,351,1.0,6.0,68,0.00,,---,0.00,19.00,VWS V14.00,2013-03-29 20:30:00,
2013-03-29 16:33:00,35.2,31.7,30.02,WNW,301,0.0,2.0,87,0.05,,---,0.05,98.00,VWS V14.00,2013-03-29 20:33:00,
2013-03-29 16:38:00,35.0,31.5,30.01,ESE,107,1.0,3.0,87,0.06,,---,0.06,90.00,VWS V14.00,2013-03-29 20:38:00,
2013-03-29 16:43:00,35.0,31.8,30.01,ESE,105,0.0,4.0,88,0.06,,---,0.06,100.00,VWS V14.00,2013-03-29 20:43:00,
2013-03-29 16:48:00,34.8,31.6,30.01,ESE,105,1.0,2.0,88,0.06,,---,0.06,132.00,VWS V14.00,2013-03-29 20:48:00,
2013-03-29 16:53:00,34.9,32.0,30.01,ESE,105,1.0,2.0,89,0.06,,---,0.06,146.00,VWS V14.00,2013-03-29 20:53:00,
2013-03-29 16:58:00,35.2,32.3,30.01,ESE,105,0.0,2.0,89,0.06,,---,0.06,142.00,VWS V14.00,2013-03-29 20:58:00,
2013-03-29 17:00:00,40.9,31.5,30.00,West,280,0.0,4.0,69,0.00,,---,0.00,0.00,VWS V14.00,2013-03-29 21:00:00,
2013-03-29 17:03:00,35.4,32.5,30.01,ESE,107,0.0,2.0,89,0.06,,---,0.06,158.00,VWS V14.00,2013-03-29 21:03:00,
2013-03-29 17:08:00,35.7,32.8,30.01,ESE,107,0.0,2.0,89,0.06,,---,0.06,151.00,VWS V14.00,2013-03-29 21:08:00,
2013-03-29 17:13:00,36.1,33.2,30.01,ESE,107,0.0,2.0,89,0.06,,---,0.06,83.00,VWS V14.00,2013-03-29 21:13:00,
2013-03-29 17:18:00,36.2,33.3,30.01,ESE,107,0.0,1.0,89,0.04,,---,0.06,72.00,VWS V14.00,2013-03-29 21:18:00,
2013-03-29 17:23:00,36.3,33.4,30.01,ESE,107,0.0,1.0,89,0.04,,---,0.06,40.00,VWS V14.00,2013-03-29 21:23:00,
2013-03-29 17:28:00,36.3,33.4,30.01,ESE,107,0.0,1.0,89,0.04,,---,0.06,35.00,VWS V14.00,2013-03-29 21:28:00,
2013-03-29 17:30:00,35.7,28.9,30.01,West,280,0.0,2.0,76,0.00,,---,0.00,0.00,VWS V14.00,2013-03-29 21:30:00,
2013-03-29 17:33:00,36.3,33.4,30.01,ESE,107,0.0,1.0,89,0.04,,---,0.06,35.00,VWS V14.00,2013-03-29 21:33:00,
2013-03-29 17:38:00,36.4,33.5,30.01,ESE,107,0.0,2.0,89,0.04,,---,0.06,32.00,VWS V14.00,2013-03-29 21:38:00,
2013-03-29 17:43:00,36.4,33.5,30.01,ESE,107,0.0,2.0,89,0.04,,---,0.06,32.00,VWS V14.00,2013-03-29 21:43:00,
2013-03-29 17:48:00,36.5,33.6,30.01,ESE,107,0.0,0.0,89,0.00,,---,0.06,53.00,VWS V14.00,2013-03-29 21:48:00,
2013-03-29 17:53:00,36.5,33.6,30.01,ESE,107,0.0,2.0,89,0.00,,---,0.06,33.00,VWS V14.00,2013-03-29 21:53:00,
2013-03-29 17:58:00,36.5,33.6,30.02,ESE,107,0.0,2.0,89,0.00,,---,0.06,39.00,VWS V14.00,2013-03-29 21:58:00,
2013-03-29 18:00:00,33.9,28.4,30.02,West,280,0.0,2.0,80,0.00,,---,0.00,0.00,VWS V14.00,2013-03-29 22:00:00,
2013-03-29 18:03:00,36.6,33.7,30.02,ESE,107,0.0,2.0,89,0.00,,---,0.06,49.00,VWS V14.00,2013-03-29 22:03:00,
2013-03-29 18:09:00,36.6,33.7,30.02,ESE,107,0.0,2.0,89,0.00,,---,0.06,46.00,VWS V14.00,2013-03-29 22:09:00,
2013-03-29 18:14:00,36.6,33.7,30.02,ESE,107,0.0,2.0,89,0.00,,---,0.06,42.00,VWS V14.00,2013-03-29 22:14:00,
2013-03-29 18:19:00,36.7,33.8,30.02,ESE,107,0.0,0.0,89,0.00,,---,0.06,42.00,VWS V14.00,2013-03-29 22:19:00,
2013-03-29 18:24:00,36.7,33.8,30.02,ESE,107,0.0,0.0,89,0.00,,---,0.06,39.00,VWS V14.00,2013-03-29 22:24:00,
2013-03-29 18:29:00,36.8,33.9,30.02,ESE,107,0.0,0.0,89,0.00,,---,0.06,30.00,VWS V14.00,2013-03-29 22:29:00,
2013-03-29 18:30:00,32.6,27.7,30.02,West,280,0.0,1.0,82,0.00,,---,0.00,0.00,VWS V14.00,2013-03-29 22:30:00,
2013-03-29 18:34:00,36.7,33.8,30.02,ESE,107,0.0,0.0,89,0.00,,---,0.06,25.00,VWS V14.00,2013-03-29 22:34:00,
2013-03-29 18:39:00,36.7,33.8,30.02,ESE,107,0.0,0.0,89,0.00,,---,0.06,30.00,VWS V14.00,2013-03-29 22:39:00,
2013-03-29 18:44:00,36.7,33.8,30.02,ESE,107,0.0,0.0,89,0.00,,---,0.06,21.00,VWS V14.00,2013-03-29 22:44:00,
2013-03-29 18:49:00,36.6,33.7,30.02,ESE,107,0.0,0.0,89,0.00,,---,0.06,14.00,VWS V14.00,2013-03-29 22:49:00,
2013-03-29 18:54:00,36.6,33.7,30.02,ESE,107,0.0,0.0,89,0.00,,---,0.06,9.00,VWS V14.00,2013-03-29 22:54:00,
2013-03-29 18:59:00,36.6,33.7,30.02,ESE,107,0.0,0.0,89,0.00,,---,0.06,7.00,VWS V14.00,2013-03-29 22:59:00,
2013-03-29 19:00:00,31.5,27.5,30.03,West,280,0.0,2.0,85,0.00,,---,0.00,0.00,VWS V14.00,2013-03-29 23:00:00,
2013-03-29 19:04:00,36.6,33.7,30.02,ESE,107,0.0,0.0,89,0.00,,---,0.06,0.00,VWS V14.00,2013-03-29 23:04:00,
2013-03-29 19:09:00,36.6,34.0,30.02,ESE,107,0.0,0.0,90,0.00,,---,0.06,0.00,VWS V14.00,2013-03-29 23:09:00,
2013-03-29 19:14:00,36.5,33.8,30.02,ESE,107,0.0,0.0,90,0.00,,---,0.06,0.00,VWS V14.00,2013-03-29 23:14:00,
2013-03-29 19:19:00,36.4,33.8,30.02,ESE,107,0.0,0.0,90,0.00,,---,0.06,0.00,VWS V14.00,2013-03-29 23:19:00,
2013-03-29 19:24:00,36.3,33.7,30.03,ESE,107,0.0,0.0,90,0.00,,---,0.06,0.00,VWS V14.00,2013-03-29 23:24:00,
2013-03-29 19:29:00,36.2,33.3,30.03,ESE,107,0.0,0.0,89,0.00,,---,0.06,0.00,VWS V14.00,2013-03-29 23:29:00,
2013-03-29 19:30:00,31.6,27.9,30.04,West,280,0.0,2.0,86,0.00,,---,0.00,0.00,VWS V14.00,2013-03-29 23:30:00,
2013-03-29 19:34:00,36.1,33.5,30.03,ESE,107,0.0,0.0,90,0.00,,---,0.06,0.00,VWS V14.00,2013-03-29 23:34:00,
2013-03-29 19:39:00,35.9,33.3,30.03,ESE,107,0.0,0.0,90,0.00,,---,0.06,0.00,VWS V14.00,2013-03-29 23:39:00,
2013-03-29 19:44:00,35.8,33.2,30.03,ESE,107,0.0,0.0,90,0.00,,---,0.06,0.00,VWS V14.00,2013-03-29 23:44:00,
2013-03-29 19:49:00,35.7,33.1,30.03,ESE,107,0.0,0.0,90,0.00,,---,0.06,0.00,VWS V14.00,2013-03-29 23:49:00,
2013-03-29 19:54:00,35.6,33.0,30.03,ESE,107,0.0,0.0,90,0.00,,---,0.06,0.00,VWS V14.00,2013-03-29 23:54:00,
2013-03-29 19:59:00,35.4,32.8,30.03,ESE,107,0.0,0.0,90,0.00,,---,0.06,0.00,VWS V14.00,2013-03-29 23:59:00,
2013-03-29 20:00:00,31.5,28.1,30.04,West,280,0.0,0.0,87,0.00,,---,0.00,0.00,VWS V14.00,2013-03-30 00:00:00,
2013-03-29 20:04:00,35.2,32.6,30.04,ESE,107,0.0,0.0,90,0.00,,---,0.06,0.00,VWS V14.00,2013-03-30 00:04:00,
2013-03-29 20:09:00,35.1,32.5,30.04,ESE,107,0.0,0.0,90,0.00,,---,0.06,0.00,VWS V14.00,2013-03-30 00:09:00,
2013-03-29 20:15:00,35.1,32.5,30.04,ESE,107,0.0,0.0,90,0.00,,---,0.06,0.00,VWS V14.00,2013-03-30 00:15:00,
2013-03-29 20:20:00,35.0,32.4,30.04,ESE,107,0.0,0.0,90,0.00,,---,0.06,0.00,VWS V14.00,2013-03-30 00:20:00,
2013-03-29 20:25:00,35.0,32.4,30.04,ESE,107,0.0,0.0,90,0.00,,---,0.06,0.00,VWS V14.00,2013-03-30 00:25:00,
2013-03-29 20:30:00,34.9,32.3,30.05,ESE,107,0.0,0.0,90,0.00,,---,0.06,0.00,VWS V14.00,2013-03-30 00:30:00,
2013-03-29 20:35:00,34.9,32.3,30.05,ESE,107,0.0,0.0,90,0.00,,---,0.06,0.00,VWS V14.00,2013-03-30 00:35:00,
2013-03-29 20:40:00,34.8,32.2,30.05,ESE,107,0.0,0.0,90,0.00,,---,0.06,0.00,VWS V14.00,2013-03-30 00:40:00,
2013-03-29 20:45:00,34.7,32.1,30.05,ESE,107,0.0,0.0,90,0.00,,---,0.06,0.00,VWS V14.00,2013-03-30 00:45:00,
2013-03-29 20:50:00,34.7,32.1,30.05,ESE,107,0.0,0.0,90,0.00,,---,0.06,0.00,VWS V14.00,2013-03-30 00:50:00,
2013-03-29 20:55:00,34.6,32.0,30.05,ESE,107,0.0,0.0,90,0.00,,---,0.06,0.00,VWS V14.00,2013-03-30 00:55:00,
2013-03-29 21:00:00,34.4,31.8,30.05,ESE,107,0.0,0.0,90,0.00,,---,0.06,0.00,VWS V14.00,2013-03-30 01:00:00,
2013-03-29 21:05:00,34.3,31.7,30.05,ESE,107,0.0,0.0,90,0.00,,---,0.06,0.00,VWS V14.00,2013-03-30 01:05:00,
2013-03-29 21:10:00,34.2,31.6,30.05,ESE,107,0.0,0.0,90,0.00,,---,0.06,0.00,VWS V14.00,2013-03-30 01:10:00,
2013-03-29 21:15:00,34.2,31.6,30.05,ESE,107,0.0,0.0,90,0.00,,---,0.06,0.00,VWS V14.00,2013-03-30 01:15:00,
2013-03-29 21:20:00,34.1,31.5,30.06,NNW,331,0.0,6.0,90,0.00,,---,0.06,0.00,VWS V14.00,2013-03-30 01:20:00,
2013-03-29 21:25:00,34.2,31.6,30.06,NW,322,0.0,6.0,90,0.00,,---,0.06,0.00,VWS V14.00,2013-03-30 01:25:00,
2013-03-29 21:30:00,34.2,31.6,30.05,NW,322,0.0,6.0,90,0.00,,---,0.06,0.00,VWS V14.00,2013-03-30 01:30:00,
2013-03-29 21:35:00,34.2,31.6,30.06,NW,322,0.0,6.0,90,0.00,,---,0.06,0.00,VWS V14.00,2013-03-30 01:35:00,
2013-03-29 21:40:00,34.2,31.6,30.06,NW,322,1.0,6.0,90,0.00,,---,0.06,0.00,VWS V14.00,2013-03-30 01:40:00,
2013-03-29 21:45:00,34.2,31.6,30.06,NW,322,0.0,1.0,90,0.00,,---,0.06,0.00,VWS V14.00,2013-03-30 01:45:00,
2013-03-29 21:50:00,34.3,31.7,30.06,NW,322,0.0,2.0,90,0.00,,---,0.06,0.00,VWS V14.00,2013-03-30 01:50:00,
2013-03-29 21:56:00,34.3,31.7,30.06,NW,322,0.0,2.0,90,0.00,,---,0.06,0.00,VWS V14.00,2013-03-30 01:56:00,
2013-03-29 22:00:00,31.4,28.3,30.04,West,280,0.0,1.0,88,0.00,,---,0.00,0.00,VWS V14.00,2013-03-30 02:00:00,
2013-03-29 22:01:00,34.1,31.5,30.06,NW,322,0.0,2.0,90,0.00,,---,0.06,0.00,VWS V14.00,2013-03-30 02:01:00,
2013-03-29 22:06:00,33.9,31.0,30.06,NW,322,0.0,2.0,89,0.00,,---,0.06,0.00,VWS V14.00,2013-03-30 02:06:00,
2013-03-29 22:11:00,33.7,31.1,30.06,NW,322,0.0,2.0,90,0.00,,---,0.06,0.00,VWS V14.00,2013-03-30 02:11:00,
2013-03-29 22:16:00,33.5,30.6,30.06,North,355,1.0,1.0,89,0.00,,---,0.06,0.00,VWS V14.00,2013-03-30 02:16:00,
2013-03-29 22:21:00,33.4,30.8,30.06,North,355,0.0,1.0,90,0.00,,---,0.06,0.00,VWS V14.00,2013-03-30 02:21:00,
2013-03-29 22:26:00,33.2,30.6,30.06,North,355,0.0,1.0,90,0.00,,---,0.06,0.00,VWS V14.00,2013-03-30 02:26:00,
2013-03-29 22:30:00,31.4,28.3,30.05,West,280,0.0,0.0,88,0.00,,---,0.00,0.00,VWS V14.00,2013-03-30 02:30:00,
2013-03-29 22:31:00,33.1,30.5,30.06,North,355,0.0,1.0,90,0.00,,---,0.06,0.00,VWS V14.00,2013-03-30 02:31:00,
2013-03-29 22:36:00,33.0,30.4,30.06,North,355,0.0,1.0,90,0.00,,---,0.06,0.00,VWS V14.00,2013-03-30 02:36:00,
2013-03-29 22:41:00,33.0,30.4,30.06,North,355,0.0,1.0,90,0.00,,---,0.06,0.00,VWS V14.00,2013-03-30 02:41:00,
2013-03-29 22:46:00,32.9,30.3,30.06,North,355,0.0,0.0,90,0.00,,---,0.06,0.00,VWS V14.00,2013-03-30 02:46:00,
2013-03-29 22:51:00,32.8,30.2,30.06,North,355,0.0,0.0,90,0.00,,---,0.06,0.00,VWS V14.00,2013-03-30 02:51:00,
2013-03-29 22:57:00,32.8,30.2,30.06,North,355,0.0,0.0,90,0.00,,---,0.06,0.00,VWS V14.00,2013-03-30 02:57:00,
2013-03-29 23:00:00,31.6,28.7,30.05,West,280,0.0,1.0,89,0.00,,---,0.00,0.00,VWS V14.00,2013-03-30 03:00:00,
2013-03-29 23:02:00,32.7,30.1,30.06,North,355,0.0,0.0,90,0.00,,---,0.06,0.00,VWS V14.00,2013-03-30 03:02:00,
2013-03-29 23:07:00,32.7,30.1,30.06,North,355,0.0,0.0,90,0.00,,---,0.06,0.00,VWS V14.00,2013-03-30 03:07:00,
2013-03-29 23:12:00,32.6,30.0,30.06,North,355,0.0,0.0,90,0.00,,---,0.06,0.00,VWS V14.00,2013-03-30 03:12:00,
2013-03-29 23:17:00,32.6,30.0,30.06,North,355,0.0,0.0,90,0.00,,---,0.06,0.00,VWS V14.00,2013-03-30 03:17:00,
2013-03-29 23:22:00,32.6,30.3,30.06,North,355,0.0,0.0,91,0.00,,---,0.06,0.00,VWS V14.00,2013-03-30 03:22:00,
2013-03-29 23:27:00,32.6,30.3,30.06,North,355,0.0,0.0,91,0.00,,---,0.06,0.00,VWS V14.00,2013-03-30 03:27:00,
2013-03-29 23:30:00,31.8,28.9,30.05,West,280,0.0,0.0,89,0.00,,---,0.00,0.00,VWS V14.00,2013-03-30 03:30:00,
2013-03-29 23:32:00,32.6,30.3,30.06,North,355,0.0,0.0,91,0.00,,---,0.06,0.00,VWS V14.00,2013-03-30 03:32:00,
2013-03-29 23:37:00,32.7,30.4,30.06,North,355,0.0,0.0,91,0.00,,---,0.06,0.00,VWS V14.00,2013-03-30 03:37:00,
2013-03-29 23:42:00,32.7,30.4,30.06,North,355,0.0,0.0,91,0.00,,---,0.06,0.00,VWS V14.00,2013-03-30 03:42:00,
2013-03-29 23:47:00,32.7,30.4,30.06,North,355,0.0,0.0,91,0.00,,---,0.06,0.00,VWS V14.00,2013-03-30 03:47:00,
2013-03-29 23:52:00,32.8,30.5,30.06,North,355,0.0,0.0,91,0.00,,---,0.06,0.00,VWS V14.00,2013-03-30 03:52:00,
2013-03-29 23:57:00,32.7,30.4,30.06,North,355,1.0,1.0,91,0.00,,---,0.06,0.00,VWS V14.00,2013-03-30 03:57:00,